createdAt,value
2023-04-29T00:02:05.202Z,14.03
2023-04-29T00:04:32.824Z,14.05
2023-04-29T00:07:00.315Z,14.09
2023-04-29T00:09:27.629Z,14.13
2023-04-29T00:11:55.027Z,14.14
2023-04-29T00:14:22.382Z,14.14
2023-04-29T00:16:49.682Z,14.12
2023-04-29T00:19:18.369Z,14.08
2023-04-29T00:21:45.686Z,14.08
2023-04-29T00:24:12.958Z,14.06
2023-04-29T00:26:41.328Z,14.06
2023-04-29T00:29:08.743Z,14.11
2023-04-29T00:31:37.461Z,14.02
2023-04-29T00:34:05.330Z,13.97
2023-04-29T00:36:32.985Z,13.82
2023-04-29T00:39:00.375Z,13.80
2023-04-29T00:41:27.861Z,13.93
2023-04-29T00:43:55.255Z,13.89
2023-04-29T00:46:22.695Z,14.06
2023-04-29T00:48:50.220Z,14.13
2023-04-29T00:51:18.483Z,14.02
2023-04-29T00:53:47.399Z,13.95
2023-04-29T00:56:16.040Z,14.08
2023-04-29T00:58:49.795Z,14.17
2023-04-29T01:01:17.456Z,14.03
2023-04-29T01:03:45.707Z,14.04
2023-04-29T01:06:49.660Z,14.15
2023-04-29T01:09:23.989Z,14.06
2023-04-29T01:12:11.472Z,13.99
2023-04-29T01:14:39.759Z,14.06
2023-04-29T01:17:11.777Z,14.00
2023-04-29T01:19:48.420Z,14.15
2023-04-29T01:22:18.482Z,14.13
2023-04-29T01:24:46.368Z,14.34
2023-04-29T01:27:23.604Z,14.30
2023-04-29T01:30:03.049Z,14.15
2023-04-29T01:32:58.692Z,14.15
2023-04-29T01:35:35.001Z,14.08
2023-04-29T01:38:23.571Z,14.07
2023-04-29T01:41:05.964Z,14.03
2023-04-29T01:43:35.993Z,14.08
2023-04-29T01:46:11.802Z,14.12
2023-04-29T01:48:39.547Z,14.09
2023-04-29T01:51:07.304Z,14.06
2023-04-29T01:53:34.971Z,14.10
2023-04-29T01:56:02.375Z,14.09
2023-04-29T01:58:41.374Z,14.05
2023-04-29T02:01:34.198Z,14.21
2023-04-29T02:04:03.146Z,14.13
2023-04-29T02:06:32.286Z,14.09
2023-04-29T02:09:03.033Z,14.04
2023-04-29T02:11:32.556Z,14.07
2023-04-29T02:13:59.975Z,14.04
2023-04-29T02:16:28.268Z,14.17
2023-04-29T02:19:02.445Z,14.36
2023-04-29T02:21:29.873Z,14.32
2023-04-29T02:23:57.291Z,14.38
2023-04-29T02:26:25.726Z,14.30
2023-04-29T02:28:57.266Z,14.18
2023-04-29T02:31:24.724Z,14.17
2023-04-29T02:33:52.291Z,13.97
2023-04-29T02:36:20.221Z,14.12
2023-04-29T02:38:50.658Z,14.31
2023-04-29T02:41:18.479Z,14.13
2023-04-29T02:43:52.040Z,14.24
2023-04-29T02:46:19.984Z,14.20
2023-04-29T02:48:47.520Z,14.12
2023-04-29T02:51:16.372Z,14.18
2023-04-29T02:53:44.191Z,14.21
2023-04-29T02:56:11.697Z,14.08
2023-04-29T02:58:39.325Z,14.02
2023-04-29T03:01:07.282Z,14.14
2023-04-29T03:03:34.979Z,14.08
2023-04-29T03:06:02.528Z,13.97
2023-04-29T03:08:29.933Z,13.95
2023-04-29T03:10:57.471Z,14.19
2023-04-29T03:13:25.062Z,14.22
2023-04-29T03:15:52.589Z,14.08
2023-04-29T03:18:20.043Z,14.05
2023-04-29T03:20:48.725Z,13.91
2023-04-29T03:23:16.107Z,13.84
2023-04-29T03:25:43.681Z,13.84
2023-04-29T03:28:11.154Z,13.84
2023-04-29T03:30:38.935Z,13.75
2023-04-29T03:33:06.452Z,13.86
2023-04-29T03:35:34.074Z,13.75
2023-04-29T03:38:27.796Z,13.82
2023-04-29T03:40:56.067Z,13.89
2023-04-29T03:43:23.548Z,13.84
2023-04-29T03:45:51.608Z,13.97
2023-04-29T03:48:22.193Z,13.94
2023-04-29T03:50:49.669Z,13.76
2023-04-29T03:53:17.394Z,13.87
2023-04-29T03:55:44.984Z,13.79
2023-04-29T03:58:12.409Z,13.73
2023-04-29T04:00:39.885Z,13.72
2023-04-29T04:03:12.681Z,13.69
2023-04-29T04:05:40.191Z,13.77
2023-04-29T04:08:11.560Z,13.76
2023-04-29T04:10:53.085Z,13.81
2023-04-29T04:13:37.984Z,13.81
2023-04-29T04:16:06.168Z,13.73
2023-04-29T04:18:33.709Z,13.68
2023-04-29T04:21:06.443Z,13.82
2023-04-29T04:23:33.985Z,13.89
2023-04-29T04:26:02.769Z,14.14
2023-04-29T04:28:50.495Z,13.99
2023-04-29T04:31:46.806Z,14.11
2023-04-29T04:34:16.100Z,13.96
2023-04-29T04:36:44.566Z,14.07
2023-04-29T04:39:11.998Z,13.98
2023-04-29T04:41:39.576Z,13.89
2023-04-29T04:44:07.209Z,13.82
2023-04-29T04:46:52.235Z,13.73
2023-04-29T04:49:33.934Z,13.79
2023-04-29T04:52:01.861Z,13.83
2023-04-29T04:54:29.356Z,13.78
2023-04-29T04:57:06.320Z,13.80
2023-04-29T04:59:34.322Z,13.90
2023-04-29T05:02:02.097Z,13.97
2023-04-29T05:04:29.914Z,13.74
2023-04-29T05:06:57.544Z,13.72
2023-04-29T05:09:28.309Z,13.74
2023-04-29T05:11:56.160Z,13.77
2023-04-29T05:14:23.618Z,13.66
2023-04-29T05:16:52.846Z,13.75
2023-04-29T05:19:21.335Z,13.74
2023-04-29T05:21:48.720Z,13.66
2023-04-29T05:24:17.012Z,13.59
2023-04-29T05:26:45.028Z,13.77
2023-04-29T05:29:12.610Z,13.69
2023-04-29T05:31:48.016Z,13.64
2023-04-29T05:34:15.783Z,13.64
2023-04-29T05:36:43.259Z,13.71
2023-04-29T05:39:10.702Z,13.65
2023-04-29T05:41:38.127Z,13.76
2023-04-29T05:44:19.556Z,13.68
2023-04-29T05:46:48.793Z,13.73
2023-04-29T05:49:16.714Z,13.78
2023-04-29T05:51:44.099Z,13.82
2023-04-29T05:54:11.478Z,13.79
2023-04-29T05:56:38.880Z,13.84
2023-04-29T05:59:06.316Z,13.86
2023-04-29T06:01:34.105Z,13.94
2023-04-29T06:04:01.762Z,13.97
2023-04-29T06:06:43.723Z,13.99
2023-04-29T06:09:27.527Z,14.02
2023-04-29T06:11:57.976Z,14.21
2023-04-29T06:14:25.631Z,14.19
2023-04-29T06:16:53.896Z,14.06
2023-04-29T06:19:21.680Z,14.09
2023-04-29T06:21:49.751Z,14.25
2023-04-29T06:24:17.262Z,14.24
2023-04-29T06:26:44.823Z,14.19
2023-04-29T06:29:12.519Z,14.14
2023-04-29T06:31:40.115Z,14.34
2023-04-29T06:34:09.121Z,14.33
2023-04-29T06:36:45.493Z,14.30
2023-04-29T06:39:40.460Z,14.33
2023-04-29T06:42:16.275Z,14.55
2023-04-29T06:45:03.750Z,14.59
2023-04-29T06:47:46.667Z,14.39
2023-04-29T06:50:23.866Z,14.36
2023-04-29T06:52:52.631Z,14.40
2023-04-29T06:55:24.149Z,14.45
2023-04-29T06:57:52.111Z,14.42
2023-04-29T07:00:21.193Z,14.41
2023-04-29T07:02:48.960Z,14.43
2023-04-29T07:05:16.876Z,14.56
2023-04-29T07:07:44.356Z,14.54
2023-04-29T07:10:11.922Z,14.53
2023-04-29T07:12:39.799Z,14.52
2023-04-29T07:15:07.779Z,14.52
2023-04-29T07:17:35.244Z,14.60
2023-04-29T07:20:04.212Z,14.64
2023-04-29T07:22:31.695Z,14.77
2023-04-29T07:24:59.230Z,14.82
2023-04-29T07:27:26.795Z,14.81
2023-04-29T07:29:54.247Z,14.87
2023-04-29T07:32:22.700Z,14.98
2023-04-29T07:34:50.293Z,15.04
2023-04-29T07:37:17.760Z,15.14
2023-04-29T07:39:45.775Z,15.14
2023-04-29T07:42:13.580Z,15.28
2023-04-29T07:44:41.812Z,15.32
2023-04-29T07:47:09.548Z,15.44
2023-04-29T07:49:37.473Z,15.37
2023-04-29T07:52:06.209Z,15.45
2023-04-29T07:54:33.575Z,15.41
2023-04-29T07:57:03.617Z,15.41
2023-04-29T07:59:32.229Z,15.49
2023-04-29T08:01:59.821Z,15.48
2023-04-29T08:04:27.943Z,15.53
2023-04-29T08:07:04.516Z,15.50
2023-04-29T08:09:32.381Z,15.59
2023-04-29T08:11:59.852Z,15.61
2023-04-29T08:14:27.228Z,15.61
2023-04-29T08:16:55.753Z,15.54
2023-04-29T08:19:23.298Z,15.71
2023-04-29T08:21:52.120Z,15.72
2023-04-29T08:24:20.737Z,15.73
2023-04-29T08:26:48.391Z,15.75
2023-04-29T08:29:17.090Z,15.77
2023-04-29T08:31:45.185Z,15.91
2023-04-29T08:34:12.895Z,15.95
2023-04-29T08:36:40.448Z,15.86
2023-04-29T08:39:07.887Z,15.89
2023-04-29T08:41:37.033Z,16.06
2023-04-29T08:44:05.170Z,16.13
2023-04-29T08:46:32.849Z,16.26
2023-04-29T08:49:04.480Z,16.36
2023-04-29T08:51:33.353Z,16.48
2023-04-29T08:54:00.779Z,16.48
2023-04-29T08:56:31.051Z,16.45
2023-04-29T08:58:59.266Z,16.58
2023-04-29T09:01:30.579Z,16.75
2023-04-29T09:04:12.526Z,17.13
2023-04-29T09:06:40.535Z,17.30
2023-04-29T09:09:08.986Z,17.30
2023-04-29T09:11:37.526Z,17.31
2023-04-29T09:14:05.181Z,17.32
2023-04-29T09:16:32.607Z,17.24
2023-04-29T09:19:00.091Z,17.16
2023-04-29T09:21:29.022Z,17.15
2023-04-29T09:23:58.010Z,17.13
2023-04-29T09:26:26.795Z,17.21
2023-04-29T09:29:11.894Z,17.28
2023-04-29T09:31:40.093Z,17.34
2023-04-29T09:34:08.235Z,17.37
2023-04-29T09:36:57.044Z,17.41
2023-04-29T09:39:25.239Z,17.56
2023-04-29T09:41:52.741Z,17.59
2023-04-29T09:44:23.149Z,17.65
2023-04-29T09:47:04.236Z,17.92
2023-04-29T09:49:37.307Z,17.98
2023-04-29T09:52:10.712Z,17.95
2023-04-29T09:54:39.959Z,17.72
2023-04-29T09:57:16.104Z,17.81
2023-04-29T09:59:43.921Z,17.75
2023-04-29T10:02:18.854Z,17.84
2023-04-29T10:04:48.512Z,17.98
2023-04-29T10:07:17.683Z,17.74
2023-04-29T10:09:47.710Z,17.63
2023-04-29T10:12:20.406Z,17.58
2023-04-29T10:15:00.948Z,17.49
2023-04-29T10:17:45.149Z,17.59
2023-04-29T10:20:24.689Z,17.64
2023-04-29T10:22:57.122Z,17.87
2023-04-29T10:25:26.283Z,17.78
2023-04-29T10:27:55.937Z,18.22
2023-04-29T10:30:23.562Z,18.34
2023-04-29T10:32:52.664Z,18.39
2023-04-29T10:35:25.640Z,18.66
2023-04-29T10:37:54.271Z,18.57
2023-04-29T10:40:49.603Z,18.29
2023-04-29T10:43:25.435Z,18.17
2023-04-29T10:46:17.498Z,18.22
2023-04-29T10:48:45.987Z,18.13
2023-04-29T10:51:14.440Z,18.11
2023-04-29T10:54:15.592Z,18.55
2023-04-29T10:56:54.140Z,18.62
2023-04-29T10:59:46.103Z,18.78
2023-04-29T11:02:15.249Z,18.85
2023-04-29T11:05:09.151Z,19.00
2023-04-29T11:07:36.970Z,19.07
2023-04-29T11:10:04.640Z,19.24
2023-04-29T11:12:32.052Z,19.41
2023-04-29T11:15:04.927Z,19.36
2023-04-29T11:17:38.178Z,19.24
2023-04-29T11:20:10.436Z,19.15
2023-04-29T11:22:38.217Z,19.21
2023-04-29T11:25:07.380Z,19.18
2023-04-29T11:27:37.136Z,19.11
2023-04-29T11:30:07.656Z,19.17
2023-04-29T11:32:41.299Z,19.15
2023-04-29T11:35:16.212Z,19.21
2023-04-29T11:37:45.672Z,19.10
2023-04-29T11:40:14.471Z,19.03
2023-04-29T11:42:45.364Z,19.11
2023-04-29T11:45:13.087Z,19.07
2023-04-29T11:47:45.891Z,19.11
2023-04-29T11:50:17.905Z,19.20
2023-04-29T11:52:47.510Z,19.21
2023-04-29T11:55:15.214Z,19.10
2023-04-29T11:57:42.591Z,19.15
2023-04-29T12:00:13.840Z,19.14
2023-04-29T12:02:44.362Z,19.22
2023-04-29T12:05:13.371Z,19.35
2023-04-29T12:07:41.313Z,19.29
2023-04-29T12:10:10.990Z,19.37
2023-04-29T12:12:41.037Z,19.30
2023-04-29T12:15:10.345Z,19.42
2023-04-29T12:17:39.002Z,19.38
2023-04-29T12:20:09.475Z,19.29
2023-04-29T12:22:37.062Z,19.16
2023-04-29T12:25:05.422Z,19.19
2023-04-29T12:27:34.556Z,19.17
2023-04-29T12:30:02.023Z,18.88
2023-04-29T12:32:29.598Z,19.12
2023-04-29T12:34:56.991Z,19.24
2023-04-29T12:37:24.493Z,19.23
2023-04-29T12:39:52.901Z,19.20
2023-04-29T12:42:20.564Z,19.17
2023-04-29T12:44:49.222Z,19.09
2023-04-29T12:47:17.233Z,19.11
2023-04-29T12:49:46.833Z,18.97
2023-04-29T12:52:14.586Z,18.92
2023-04-29T12:54:43.821Z,19.15
2023-04-29T12:57:12.483Z,19.34
2023-04-29T12:59:41.438Z,19.32
2023-04-29T13:02:09.051Z,19.38
2023-04-29T13:04:36.672Z,19.40
2023-04-29T13:07:04.850Z,19.36
2023-04-29T13:09:32.442Z,19.41
2023-04-29T13:11:59.820Z,19.41
2023-04-29T13:14:27.686Z,19.39
2023-04-29T13:16:55.137Z,19.38
2023-04-29T13:21:53.110Z,19.33
2023-04-29T13:24:21.126Z,19.22
2023-04-29T13:26:52.258Z,19.19
2023-04-29T13:29:19.932Z,19.37
2023-04-29T13:31:47.246Z,19.36
2023-04-29T13:34:14.689Z,19.47
2023-04-29T13:36:42.191Z,19.60
2023-04-29T13:39:10.531Z,19.62
2023-04-29T13:41:41.244Z,19.70
2023-04-29T13:44:23.474Z,19.72
2023-04-29T13:46:55.613Z,19.62
2023-04-29T13:49:55.982Z,19.48
2023-04-29T13:59:48.820Z,19.48
2023-04-29T14:02:25.671Z,19.61
2023-04-29T14:04:54.469Z,19.55
2023-04-29T14:07:23.006Z,19.65
2023-04-29T14:09:50.519Z,19.72
2023-04-29T14:12:17.933Z,19.77
2023-04-29T14:14:45.412Z,19.75
2023-04-29T14:17:13.020Z,19.76
2023-04-29T14:19:40.998Z,19.81
2023-04-29T14:22:08.543Z,19.73
2023-04-29T14:24:36.053Z,19.70
2023-04-29T14:27:03.701Z,19.62
2023-04-29T14:29:31.133Z,19.70
2023-04-29T14:31:58.583Z,19.65
2023-04-29T14:34:26.145Z,19.80
2023-04-29T14:36:54.172Z,19.79
2023-04-29T14:39:26.950Z,19.71
2023-04-29T14:41:54.376Z,19.80
2023-04-29T14:44:21.779Z,19.84
2023-04-29T14:46:49.228Z,19.82
2023-04-29T14:49:16.626Z,19.72
2023-04-29T14:51:44.247Z,19.81
2023-04-29T14:54:12.502Z,19.80
2023-04-29T14:56:47.605Z,19.78
2023-04-29T14:59:15.064Z,19.58
2023-04-29T15:01:42.913Z,19.58
2023-04-29T15:04:12.824Z,19.66
2023-04-29T15:06:40.831Z,19.63
2023-04-29T15:09:08.231Z,19.57
2023-04-29T15:11:35.775Z,19.64
2023-04-29T15:14:03.289Z,19.52
2023-04-29T15:16:31.684Z,19.42
2023-04-29T15:18:59.292Z,19.50
2023-04-29T15:21:27.204Z,19.49
2023-04-29T15:23:54.873Z,19.50
2023-04-29T15:26:22.673Z,19.49
2023-04-29T15:28:50.163Z,19.42
2023-04-29T15:31:17.618Z,19.31
2023-04-29T15:33:44.975Z,19.38
2023-04-29T15:36:13.327Z,19.32
2023-04-29T15:38:41.567Z,19.34
2023-04-29T15:41:08.996Z,19.33
2023-04-29T15:43:36.723Z,19.23
2023-04-29T15:46:04.305Z,19.28
2023-04-29T15:48:31.800Z,19.17
2023-04-29T15:50:59.230Z,19.12
2023-04-29T15:53:26.676Z,19.25
2023-04-29T15:55:54.653Z,19.15
2023-04-29T15:58:22.143Z,19.61
2023-04-29T16:00:50.958Z,19.47
2023-04-29T16:03:18.570Z,19.55
2023-04-29T16:05:46.060Z,19.45
2023-04-29T16:08:13.514Z,19.49
2023-04-29T16:10:41.091Z,19.54
2023-04-29T16:13:08.481Z,19.46
2023-04-29T16:15:36.667Z,19.20
2023-04-29T16:18:04.162Z,19.16
2023-04-29T16:20:32.380Z,18.96
2023-04-29T16:22:59.925Z,18.99
2023-04-29T16:25:27.258Z,18.96
2023-04-29T16:27:54.770Z,19.06
2023-04-29T16:30:22.394Z,19.14
2023-04-29T16:32:49.775Z,19.24
2023-04-29T16:35:17.299Z,19.26
2023-04-29T16:37:44.745Z,19.24
2023-04-29T16:40:12.961Z,19.16
2023-04-29T16:42:40.587Z,19.19
2023-04-29T16:45:09.017Z,19.26
2023-04-29T16:47:37.743Z,19.34
2023-04-29T16:50:09.499Z,19.22
2023-04-29T16:52:36.876Z,19.24
2023-04-29T16:55:04.628Z,19.22
2023-04-29T16:57:33.536Z,19.39
2023-04-29T17:00:00.981Z,19.12
2023-04-29T17:02:29.627Z,19.22
2023-04-29T17:04:57.287Z,19.18
2023-04-29T17:07:24.856Z,19.22
2023-04-29T17:09:52.562Z,19.09
2023-04-29T17:12:20.284Z,19.19
2023-04-29T17:14:48.472Z,19.04
2023-04-29T17:17:15.887Z,19.12
2023-04-29T17:19:43.643Z,19.21
2023-04-29T17:22:10.998Z,19.18
2023-04-29T17:24:38.428Z,19.04
2023-04-29T17:27:05.973Z,18.95
2023-04-29T17:29:33.470Z,19.00
2023-04-29T17:32:02.173Z,18.99
2023-04-29T17:34:31.132Z,18.96
2023-04-29T17:36:58.600Z,18.86
2023-04-29T17:39:26.042Z,18.86
2023-04-29T17:42:11.998Z,18.72
2023-04-29T17:44:39.462Z,18.73
2023-04-29T17:47:09.360Z,18.78
2023-04-29T17:49:36.875Z,18.93
2023-04-29T17:52:04.793Z,18.78
2023-04-29T17:54:32.418Z,18.76
2023-04-29T17:57:02.128Z,18.76
2023-04-29T17:59:30.761Z,18.82
2023-04-29T18:01:58.866Z,18.75
2023-04-29T18:04:26.297Z,18.74
2023-04-29T18:06:53.745Z,18.68
2023-04-29T18:09:21.305Z,18.69
2023-04-29T18:11:49.230Z,18.72
2023-04-29T18:14:16.638Z,18.73
2023-04-29T18:16:44.227Z,18.74
2023-04-29T18:19:12.384Z,18.73
2023-04-29T18:21:39.942Z,18.63
2023-04-29T18:24:07.855Z,18.49
2023-04-29T18:26:35.874Z,18.38
2023-04-29T18:29:04.484Z,18.30
2023-04-29T18:31:31.906Z,18.31
2023-04-29T18:33:59.359Z,18.24
2023-04-29T18:36:28.131Z,18.27
2023-04-29T18:38:55.911Z,18.10
2023-04-29T18:41:23.379Z,18.12
2023-04-29T18:43:50.802Z,18.04
2023-04-29T18:46:18.478Z,18.05
2023-04-29T18:48:45.991Z,17.98
2023-04-29T18:51:13.492Z,17.89
2023-04-29T18:53:41.053Z,17.91
2023-04-29T18:56:08.869Z,17.92
2023-04-29T18:58:36.686Z,17.81
2023-04-29T19:01:04.366Z,17.78
2023-04-29T19:03:31.827Z,17.81
2023-04-29T19:05:59.901Z,17.71
2023-04-29T19:08:27.438Z,17.72
2023-04-29T19:10:55.168Z,17.70
2023-04-29T19:13:23.173Z,17.75
2023-04-29T19:15:51.128Z,17.74
2023-04-29T19:18:20.179Z,17.72
2023-04-29T19:20:48.845Z,17.64
2023-04-29T19:23:16.482Z,17.61
2023-04-29T19:25:44.107Z,17.45
2023-04-29T19:28:11.785Z,17.56
2023-04-29T19:30:39.220Z,17.55
2023-04-29T19:33:06.878Z,17.49
2023-04-29T19:35:34.399Z,17.56
2023-04-29T19:38:01.843Z,17.49
2023-04-29T19:40:29.213Z,17.44
2023-04-29T19:42:56.631Z,17.34
2023-04-29T19:45:24.486Z,17.33
2023-04-29T19:47:52.228Z,17.35
2023-04-29T19:50:19.756Z,17.33
2023-04-29T19:52:47.829Z,17.37
2023-04-29T19:55:15.307Z,17.37
2023-04-29T19:57:42.678Z,17.34
2023-04-29T20:00:11.795Z,17.27
2023-04-29T20:02:39.398Z,17.30
2023-04-29T20:05:07.354Z,17.27
2023-04-29T20:07:34.863Z,17.10
2023-04-29T20:10:02.998Z,17.11
2023-04-29T20:12:30.434Z,17.08
2023-04-29T20:14:58.435Z,17.02
2023-04-29T20:17:25.989Z,16.89
2023-04-29T20:19:53.709Z,16.88
2023-04-29T20:22:22.066Z,16.81
2023-04-29T20:24:49.574Z,16.80
2023-04-29T20:27:17.079Z,16.70
2023-04-29T20:29:45.056Z,16.72
2023-04-29T20:32:12.777Z,16.78
2023-04-29T20:34:40.466Z,16.85
2023-04-29T20:37:08.014Z,16.83
2023-04-29T20:39:35.450Z,16.83
2023-04-29T20:42:03.240Z,16.87
2023-04-29T20:44:30.987Z,16.86
2023-04-29T20:46:58.466Z,16.94
2023-04-29T20:49:26.367Z,16.90
2023-04-29T20:51:53.750Z,16.92
2023-04-29T20:54:21.548Z,16.90
2023-04-29T20:56:49.042Z,16.96
2023-04-29T20:59:16.408Z,16.96
2023-04-29T21:01:45.476Z,16.98
2023-04-29T21:04:12.998Z,17.00
2023-04-29T21:06:40.428Z,16.90
2023-04-29T21:09:09.032Z,16.82
2023-04-29T21:11:36.604Z,16.81
2023-04-29T21:14:03.947Z,16.71
2023-04-29T21:16:31.378Z,16.60
2023-04-29T21:18:58.951Z,16.62
2023-04-29T21:21:26.348Z,16.58
2023-04-29T21:23:53.698Z,16.57
2023-04-29T21:26:21.389Z,16.50
2023-04-29T21:28:49.370Z,16.45
2023-04-29T21:31:17.225Z,16.38
2023-04-29T21:33:45.107Z,16.39
2023-04-29T21:36:12.950Z,16.40
2023-04-29T21:38:42.672Z,16.35
2023-04-29T21:41:24.618Z,16.35
2023-04-29T21:43:51.980Z,16.36
2023-04-29T21:46:20.260Z,16.37
2023-04-29T21:48:47.621Z,16.33
2023-04-29T21:51:15.017Z,16.33
2023-04-29T21:53:42.786Z,16.20
2023-04-29T21:56:10.085Z,16.15
2023-04-29T21:58:37.438Z,16.17
2023-04-29T22:01:24.993Z,16.30
2023-04-29T22:03:54.061Z,16.33
2023-04-29T22:06:21.498Z,16.34
2023-04-29T22:08:49.134Z,16.29
2023-04-29T22:11:16.984Z,16.26
2023-04-29T22:13:45.683Z,16.18
2023-04-29T22:16:13.180Z,16.14
2023-04-29T22:18:40.569Z,16.08
2023-04-29T22:21:07.898Z,16.09
2023-04-29T22:23:35.220Z,16.13
2023-04-29T22:26:02.902Z,16.01
2023-04-29T22:28:30.264Z,16.00
2023-04-29T22:30:57.585Z,15.91
2023-04-29T22:33:25.028Z,15.82
2023-04-29T22:35:52.410Z,15.90
2023-04-29T22:38:20.175Z,16.05
2023-04-29T22:40:51.667Z,16.08
2023-04-29T22:43:19.018Z,15.90
2023-04-29T22:45:56.091Z,15.82
2023-04-29T22:48:26.598Z,15.82
2023-04-29T22:50:56.832Z,15.78
2023-04-29T22:53:24.355Z,15.74
2023-04-29T22:55:56.264Z,15.73
2023-04-29T22:58:25.352Z,15.71
2023-04-29T23:00:57.667Z,15.71
2023-04-29T23:03:26.398Z,15.70
2023-04-29T23:06:00.969Z,15.72
2023-04-29T23:08:28.419Z,15.73
2023-04-29T23:10:55.905Z,15.67
2023-04-29T23:13:23.619Z,15.64
2023-04-29T23:15:50.956Z,15.66
2023-04-29T23:18:18.256Z,15.68
2023-04-29T23:20:49.203Z,15.65
2023-04-29T23:23:16.531Z,15.64
2023-04-29T23:25:45.288Z,15.64
2023-04-29T23:28:12.749Z,15.58
2023-04-29T23:30:40.072Z,15.56
2023-04-29T23:33:07.474Z,15.56
2023-04-29T23:35:35.127Z,15.57
2023-04-29T23:38:02.520Z,15.52
2023-04-29T23:40:31.183Z,15.62
2023-04-29T23:42:59.126Z,15.64
2023-04-29T23:45:26.573Z,15.68
2023-04-29T23:47:54.051Z,15.65
2023-04-29T23:50:21.357Z,15.70
2023-04-29T23:52:48.725Z,15.67
2023-04-29T23:55:16.201Z,15.66
2023-04-29T23:57:43.532Z,15.55
